TimeCST,TemperatureF,Dew PointF,Humidity,Sea Level PressureIn,VisibilityMPH,Wind Direction,Wind SpeedMPH,Gust SpeedMPH,PrecipitationIn,Events,Conditions,WindDirDegrees,DateUTC
12:56 AM,48.9,44.1,83,30.27,10.0,North,12.7,20.7,N/A,,Clear,350,2012-11-13 06:56:00
1:56 AM,48.0,42.1,80,30.26,10.0,North,11.5,23.0,N/A,,Clear,360,2012-11-13 07:56:00
2:56 AM,46.9,39.9,77,30.27,10.0,North,12.7,20.7,N/A,,Clear,360,2012-11-13 08:56:00
3:56 AM,45.0,37.9,76,30.28,10.0,North,15.0,20.7,N/A,,Clear,360,2012-11-13 09:56:00
4:56 AM,44.1,37.0,76,30.29,10.0,North,15.0,23.0,N/A,,Clear,360,2012-11-13 10:56:00
5:56 AM,43.0,36.0,76,30.31,10.0,North,12.7,-,N/A,,Partly Cloudy,10,2012-11-13 11:56:00
6:56 AM,43.0,35.1,74,30.32,10.0,North,15.0,-,N/A,,Clear,360,2012-11-13 12:56:00
7:56 AM,45.0,35.1,68,30.33,10.0,North,17.3,25.3,N/A,,Partly Cloudy,360,2012-11-13 13:56:00
8:56 AM,48.0,34.0,58,30.32,10.0,North,13.8,20.7,N/A,,Partly Cloudy,360,2012-11-13 14:56:00
9:56 AM,53.1,33.1,47,30.33,10.0,NNE,13.8,23.0,N/A,,Partly Cloudy,20,2012-11-13 15:56:00
10:56 AM,55.0,30.9,40,30.30,10.0,North,16.1,21.9,N/A,,Scattered Clouds,350,2012-11-13 16:56:00
11:56 AM,59.0,30.9,35,30.27,10.0,North,15.0,-,N/A,,Scattered Clouds,10,2012-11-13 17:56:00
12:56 PM,62.1,30.9,31,30.24,10.0,NNE,13.8,20.7,N/A,,Scattered Clouds,30,2012-11-13 18:56:00
1:56 PM,63.0,30.9,30,30.22,10.0,NNE,15.0,19.6,N/A,,Mostly Cloudy,30,2012-11-13 19:56:00
2:56 PM,63.0,33.1,33,30.22,10.0,North,11.5,17.3,N/A,,Mostly Cloudy,10,2012-11-13 20:56:00
3:56 PM,61.0,34.0,36,30.22,10.0,North,8.1,-,N/A,,Mostly Cloudy,360,2012-11-13 21:56:00
4:56 PM,55.0,34.0,45,30.23,10.0,North,8.1,-,N/A,,Mostly Cloudy,360,2012-11-13 22:56:00
5:56 PM,52.0,36.0,54,30.24,10.0,North,6.9,-,N/A,,Mostly Cloudy,350,2012-11-13 23:56:00
6:56 PM,50.0,36.0,59,30.26,10.0,North,8.1,-,N/A,,Mostly Cloudy,350,2012-11-14 00:56:00
7:56 PM,50.0,35.1,57,30.27,10.0,North,5.8,-,N/A,,Scattered Clouds,360,2012-11-14 01:56:00
8:56 PM,48.0,34.0,58,30.28,10.0,North,4.6,-,N/A,,Scattered Clouds,350,2012-11-14 02:56:00
9:56 PM,48.9,34.0,56,30.27,10.0,North,9.2,-,N/A,,Mostly Cloudy,360,2012-11-14 03:56:00
10:56 PM,48.0,33.1,56,30.25,10.0,North,8.1,-,N/A,,Mostly Cloudy,10,2012-11-14 04:56:00
11:56 PM,44.1,33.1,65,30.24,10.0,North,5.8,-,N/A,,Clear,350,2012-11-14 05:56:00